createdAt,value
2022-10-01T00:02:08.667Z,9.30
2022-10-01T00:04:37.990Z,9.30
2022-10-01T00:07:10.551Z,8.70
2022-10-01T00:09:38.830Z,8.80
2022-10-01T00:12:07.621Z,9.70
2022-10-01T00:14:39.583Z,8.10
2022-10-01T00:17:07.774Z,9.00
2022-10-01T00:19:35.708Z,9.10
2022-10-01T00:22:03.796Z,8.30
2022-10-01T00:24:31.975Z,8.90
2022-10-01T00:27:00.658Z,8.60
2022-10-01T00:29:28.617Z,8.60
2022-10-01T00:31:57.408Z,9.60
2022-10-01T00:34:26.715Z,8.40
2022-10-01T00:36:54.945Z,9.30
2022-10-01T00:39:23.897Z,8.80
2022-10-01T00:41:52.772Z,8.20
2022-10-01T00:44:37.119Z,9.10
2022-10-01T00:47:30.406Z,8.50
2022-10-01T00:50:16.531Z,8.80
2022-10-01T00:52:52.214Z,8.70
2022-10-01T00:55:29.582Z,9.10
2022-10-01T00:57:58.738Z,8.60
2022-10-01T01:00:27.308Z,10.00
2022-10-01T01:02:55.481Z,8.90
2022-10-01T01:05:24.493Z,8.30
2022-10-01T01:07:54.013Z,8.10
2022-10-01T01:11:10.587Z,8.40
2022-10-01T01:16:45.643Z,8.20
2022-10-01T01:19:34.205Z,8.20
2022-10-01T01:22:07.736Z,8.10
2022-10-01T01:24:51.754Z,8.40
2022-10-01T01:27:28.813Z,8.80
2022-10-01T01:30:09.696Z,8.80
2022-10-01T01:33:04.906Z,8.90
2022-10-01T01:35:46.289Z,10.00
2022-10-01T01:38:22.965Z,9.00
2022-10-01T01:40:55.874Z,8.30
2022-10-01T01:43:31.432Z,9.30
2022-10-01T01:46:02.590Z,8.30
2022-10-01T01:48:33.349Z,8.60
2022-10-01T01:51:35.610Z,7.60
2022-10-01T01:54:03.929Z,9.50
2022-10-01T01:56:32.714Z,10.60
2022-10-01T01:59:03.469Z,9.00
2022-10-01T02:01:41.312Z,10.40
2022-10-01T02:04:31.663Z,9.00
2022-10-01T02:07:24.201Z,9.70
2022-10-01T02:10:18.682Z,8.00
2022-10-01T02:13:24.341Z,7.90
2022-10-01T02:16:35.418Z,8.70
2022-10-01T02:19:34.821Z,7.80
2022-10-01T02:22:20.506Z,8.50
2022-10-01T02:24:57.264Z,8.30
2022-10-01T02:27:37.233Z,8.30
2022-10-01T02:30:09.697Z,8.80
2022-10-01T02:32:44.026Z,9.20
2022-10-01T02:35:16.996Z,7.90
2022-10-01T02:37:50.602Z,7.70
2022-10-01T02:40:27.653Z,8.60
2022-10-01T02:43:07.147Z,8.90
2022-10-01T02:45:40.618Z,8.80
2022-10-01T02:48:11.962Z,8.00
2022-10-01T02:51:09.485Z,8.70
2022-10-01T02:53:52.869Z,8.60
2022-10-01T02:56:48.612Z,9.60
2022-10-01T02:59:17.134Z,8.40
2022-10-01T03:01:45.163Z,7.80
2022-10-01T03:04:13.527Z,8.50
2022-10-01T03:06:42.010Z,7.50
2022-10-01T03:09:10.283Z,7.70
2022-10-01T03:11:38.356Z,8.30
2022-10-01T03:14:06.886Z,9.10
2022-10-01T03:16:34.803Z,8.70
2022-10-01T03:19:03.158Z,8.40
2022-10-01T03:21:31.324Z,7.80
2022-10-01T03:23:59.677Z,8.30
2022-10-01T03:26:27.922Z,8.60
2022-10-01T03:28:55.850Z,8.90
2022-10-01T03:31:23.860Z,8.60
2022-10-01T03:33:51.924Z,8.30
2022-10-01T03:36:19.871Z,10.40
2022-10-01T03:38:48.065Z,9.40
2022-10-01T03:41:16.139Z,7.80
2022-10-01T03:43:43.975Z,8.00
2022-10-01T03:46:12.102Z,8.00
2022-10-01T03:48:40.043Z,8.90
2022-10-01T03:51:07.949Z,7.70
2022-10-01T03:53:35.882Z,9.30
2022-10-01T03:56:05.220Z,7.70
2022-10-01T03:58:34.001Z,8.20
2022-10-01T04:01:03.071Z,9.50
2022-10-01T04:03:31.770Z,8.50
2022-10-01T04:05:59.723Z,8.40
2022-10-01T04:08:27.677Z,7.70
2022-10-01T04:10:55.561Z,9.30
2022-10-01T04:13:23.834Z,8.30
2022-10-01T04:15:51.800Z,8.40
2022-10-01T04:18:21.724Z,9.20
2022-10-01T04:20:50.144Z,8.30
2022-10-01T04:23:18.630Z,8.70
2022-10-01T04:25:46.555Z,8.50
2022-10-01T04:28:15.072Z,9.80
2022-10-01T04:30:46.068Z,9.00
2022-10-01T04:33:16.884Z,9.50
2022-10-01T04:35:45.290Z,8.90
2022-10-01T04:38:18.277Z,8.70
2022-10-01T04:40:46.192Z,9.30
2022-10-01T04:43:14.100Z,10.20
2022-10-01T04:45:42.288Z,9.50
2022-10-01T04:48:10.128Z,9.70
2022-10-01T04:50:38.078Z,8.80
2022-10-01T04:53:06.200Z,8.70
2022-10-01T04:55:34.372Z,8.80
2022-10-01T04:58:03.070Z,9.70
2022-10-01T05:00:31.054Z,9.20
2022-10-01T05:02:58.974Z,8.60
2022-10-01T05:05:29.234Z,8.90
2022-10-01T05:07:57.369Z,9.00
2022-10-01T05:10:25.234Z,8.90
2022-10-01T05:12:53.802Z,9.00
2022-10-01T05:15:22.434Z,8.20
2022-10-01T05:17:50.676Z,10.40
2022-10-01T05:20:22.802Z,8.80
2022-10-01T05:22:50.736Z,9.80
2022-10-01T05:25:20.391Z,8.50
2022-10-01T05:27:48.888Z,9.10
2022-10-01T05:30:22.262Z,9.00
2022-10-01T05:33:00.509Z,9.00
2022-10-01T05:35:29.748Z,7.30
2022-10-01T05:38:02.105Z,8.50
2022-10-01T05:40:30.936Z,8.50
2022-10-01T05:43:00.646Z,8.80
2022-10-01T05:45:31.429Z,8.80
2022-10-01T05:48:06.262Z,9.70
2022-10-01T05:50:40.684Z,7.80
2022-10-01T05:53:12.165Z,8.10
2022-10-01T05:55:40.216Z,9.30
2022-10-01T05:58:11.235Z,8.90
2022-10-01T06:00:41.667Z,8.90
2022-10-01T06:03:13.277Z,8.10
2022-10-01T06:05:44.590Z,9.00
2022-10-01T06:08:13.327Z,7.70
2022-10-01T06:10:42.060Z,7.90
2022-10-01T06:13:10.743Z,7.90
2022-10-01T06:15:39.634Z,8.50
2022-10-01T06:18:10.519Z,9.00
2022-10-01T06:20:41.196Z,7.10
2022-10-01T06:23:12.564Z,7.70
2022-10-01T06:25:43.824Z,9.00
2022-10-01T06:28:14.950Z,9.20
2022-10-01T06:30:43.937Z,8.50
2022-10-01T06:33:15.751Z,8.30
2022-10-01T06:35:50.181Z,8.30
2022-10-01T06:38:21.203Z,8.60
2022-10-01T06:40:59.560Z,11.10
2022-10-01T06:43:31.191Z,8.80
2022-10-01T06:46:05.096Z,7.70
2022-10-01T06:48:35.608Z,8.90
2022-10-01T06:51:04.686Z,10.60
2022-10-01T06:53:33.140Z,8.40
2022-10-01T06:56:07.607Z,10.20
2022-10-01T06:58:35.519Z,8.60
2022-10-01T07:01:04.072Z,9.00
2022-10-01T07:03:32.501Z,10.40
2022-10-01T07:06:08.054Z,8.50
2022-10-01T07:08:36.190Z,13.10
2022-10-01T07:11:05.205Z,9.70
2022-10-01T07:13:33.180Z,8.90
2022-10-01T07:16:04.932Z,9.20
2022-10-01T07:18:33.111Z,8.60
2022-10-01T07:21:01.802Z,8.00
2022-10-01T07:23:30.058Z,8.20
2022-10-01T07:25:59.101Z,8.40
2022-10-01T07:28:28.353Z,9.00
2022-10-01T07:31:00.743Z,8.00
2022-10-01T07:33:29.529Z,8.80
2022-10-01T07:36:02.284Z,8.90
2022-10-01T07:38:31.213Z,8.30
2022-10-01T07:40:59.901Z,9.40
2022-10-01T07:43:28.306Z,9.10
2022-10-01T07:45:58.462Z,7.70
2022-10-01T07:48:28.143Z,8.00
2022-10-01T07:50:57.959Z,9.40
2022-10-01T07:53:27.521Z,7.80
2022-10-01T07:55:55.592Z,8.80
2022-10-01T07:58:24.461Z,7.80
2022-10-01T08:00:56.293Z,10.80
2022-10-01T08:03:25.405Z,7.90
2022-10-01T08:05:54.429Z,8.00
2022-10-01T08:08:23.086Z,7.50
2022-10-01T08:10:51.179Z,8.20
2022-10-01T08:13:24.934Z,7.70
2022-10-01T08:15:55.006Z,8.70
2022-10-01T08:18:24.398Z,8.90
2022-10-01T08:20:52.673Z,9.50
2022-10-01T08:23:22.102Z,8.00
2022-10-01T08:25:50.266Z,8.30
2022-10-01T08:28:18.704Z,7.50
2022-10-01T08:30:46.851Z,7.60
2022-10-01T08:33:15.099Z,8.10
2022-10-01T08:35:43.882Z,8.20
2022-10-01T08:38:14.636Z,8.30
2022-10-01T08:40:50.829Z,8.70
2022-10-01T08:43:40.154Z,7.50
2022-10-01T08:46:16.712Z,9.80
2022-10-01T08:49:14.497Z,7.10
2022-10-01T08:52:10.541Z,7.70
2022-10-01T08:54:47.604Z,9.00
2022-10-01T08:57:22.960Z,9.00
2022-10-01T09:00:01.107Z,7.40
2022-10-01T09:02:38.334Z,8.00
2022-10-01T09:05:20.940Z,7.00
2022-10-01T09:08:04.386Z,7.20
2022-10-01T09:10:47.565Z,7.20
2022-10-01T09:13:50.214Z,7.40
2022-10-01T09:16:48.634Z,7.30
2022-10-01T09:19:32.123Z,7.40
2022-10-01T09:22:19.192Z,7.10
2022-10-01T09:25:03.548Z,7.40
2022-10-01T09:27:33.497Z,7.00
2022-10-01T09:30:04.407Z,11.60
2022-10-01T09:32:43.568Z,7.10
2022-10-01T09:35:45.533Z,8.70
2022-10-01T09:38:38.698Z,7.00
2022-10-01T09:41:10.771Z,8.00
2022-10-01T09:43:41.749Z,9.10
2022-10-01T09:46:17.278Z,7.20
2022-10-01T09:49:13.582Z,6.70
2022-10-01T09:51:54.965Z,6.80
2022-10-01T09:54:31.262Z,8.20
2022-10-01T09:57:27.186Z,7.30
2022-10-01T10:00:17.511Z,8.80
2022-10-01T10:02:49.967Z,7.50
2022-10-01T10:05:21.575Z,6.30
2022-10-01T10:07:57.738Z,8.10
2022-10-01T10:10:39.704Z,7.90
2022-10-01T10:13:35.490Z,6.80
2022-10-01T10:16:25.094Z,6.40
2022-10-01T10:19:00.632Z,6.40
2022-10-01T10:21:38.091Z,6.70
2022-10-01T10:24:24.577Z,5.80
2022-10-01T10:26:59.493Z,6.30
2022-10-01T10:29:32.014Z,6.10
2022-10-01T10:32:11.798Z,6.00
2022-10-01T10:34:47.035Z,5.40
2022-10-01T10:37:21.327Z,6.30
2022-10-01T10:39:52.702Z,5.60
2022-10-01T10:42:25.379Z,6.30
2022-10-01T10:44:58.856Z,6.50
2022-10-01T10:47:31.599Z,5.80
2022-10-01T10:50:06.370Z,7.00
2022-10-01T10:55:31.368Z,5.30
2022-10-01T10:58:15.495Z,5.50
2022-10-01T11:00:50.588Z,5.50
2022-10-01T11:03:24.671Z,6.10
2022-10-01T11:05:56.406Z,6.20
2022-10-01T11:08:29.091Z,5.50
2022-10-01T11:11:15.791Z,5.00
2022-10-01T11:14:36.091Z,5.40
2022-10-01T11:17:36.825Z,5.50
2022-10-01T11:20:33.703Z,4.90
2022-10-01T11:23:27.859Z,6.20
2022-10-01T11:26:37.445Z,5.40
2022-10-01T11:29:19.502Z,5.40
2022-10-01T11:32:09.160Z,5.10
2022-10-01T11:34:49.622Z,3.80
2022-10-01T11:37:29.183Z,4.20
2022-10-01T11:40:03.349Z,4.80
2022-10-01T11:42:36.366Z,4.20
2022-10-01T11:45:23.382Z,5.10
2022-10-01T11:48:02.445Z,5.50
2022-10-01T11:50:46.068Z,5.10
2022-10-01T11:53:33.573Z,6.50
2022-10-01T11:56:29.943Z,6.10
2022-10-01T11:59:24.118Z,5.40
2022-10-01T12:02:19.239Z,6.10
2022-10-01T12:05:06.442Z,7.70
2022-10-01T12:07:50.695Z,6.20
2022-10-01T12:10:40.783Z,6.10
2022-10-01T12:13:22.941Z,5.50
2022-10-01T12:16:15.031Z,7.00
2022-10-01T12:19:34.248Z,6.20
2022-10-01T12:22:25.792Z,6.20
2022-10-01T12:24:54.411Z,6.70
2022-10-01T12:27:33.602Z,6.70
2022-10-01T12:30:19.513Z,6.30
2022-10-01T12:33:21.686Z,6.80
2022-10-01T12:36:18.948Z,6.00
2022-10-01T12:39:09.263Z,5.40
2022-10-01T12:42:04.906Z,6.00
2022-10-01T12:45:01.609Z,5.70
2022-10-01T12:47:47.693Z,6.60
2022-10-01T12:50:35.372Z,6.10
2022-10-01T12:53:22.770Z,5.40
2022-10-01T12:56:17.597Z,5.70
2022-10-01T12:58:52.514Z,5.50
2022-10-01T13:01:58.469Z,7.10
2022-10-01T13:07:58.789Z,6.00
2022-10-01T13:11:20.671Z,5.50
2022-10-01T13:13:54.971Z,5.80
2022-10-01T13:16:54.467Z,6.10
2022-10-01T13:19:34.600Z,5.20
2022-10-01T13:22:17.376Z,4.90
2022-10-01T13:25:33.237Z,5.30
2022-10-01T13:28:26.930Z,5.00
2022-10-01T13:31:10.343Z,5.60
2022-10-01T13:33:38.707Z,4.70
2022-10-01T13:36:10.932Z,4.80
2022-10-01T13:38:46.515Z,4.40
2022-10-01T13:41:28.929Z,5.10
2022-10-01T13:44:28.430Z,4.80
2022-10-01T13:47:07.312Z,5.20
2022-10-01T13:49:38.205Z,4.70
2022-10-01T13:52:06.778Z,5.30
2022-10-01T13:54:50.349Z,4.70
2022-10-01T13:57:39.342Z,4.80
2022-10-01T14:00:17.689Z,5.10
2022-10-01T14:03:06.096Z,5.90
2022-10-01T14:05:44.562Z,5.10
2022-10-01T14:08:28.291Z,4.80
2022-10-01T14:11:31.292Z,5.00
2022-10-01T14:14:30.891Z,5.40
2022-10-01T14:17:00.485Z,4.60
2022-10-01T14:19:28.775Z,5.00
2022-10-01T14:22:16.426Z,4.40
2022-10-01T14:25:03.627Z,4.80
2022-10-01T14:27:50.499Z,4.80
2022-10-01T14:30:34.090Z,5.10
2022-10-01T14:33:33.187Z,4.90
2022-10-01T14:36:18.847Z,4.80
2022-10-01T14:38:47.445Z,5.00
2022-10-01T14:41:26.106Z,4.90
2022-10-01T14:43:56.487Z,4.90
2022-10-01T14:46:25.620Z,3.90
2022-10-01T14:49:00.111Z,4.50
2022-10-01T14:51:31.428Z,4.40
2022-10-01T14:54:01.977Z,4.70
2022-10-01T14:56:30.687Z,4.50
2022-10-01T14:59:04.337Z,4.90
2022-10-01T15:01:32.659Z,5.10
2022-10-01T15:04:02.125Z,4.20
2022-10-01T15:06:43.392Z,4.50
2022-10-01T15:09:18.885Z,4.50
2022-10-01T15:11:51.449Z,4.80
2022-10-01T15:14:25.136Z,4.60
2022-10-01T15:16:53.481Z,4.50
2022-10-01T15:19:24.109Z,5.10
2022-10-01T15:21:58.732Z,4.80
2022-10-01T15:24:39.777Z,4.70
2022-10-01T15:27:18.199Z,3.90
2022-10-01T15:29:56.028Z,4.70
2022-10-01T15:32:28.091Z,4.60
2022-10-01T15:35:01.716Z,4.30
2022-10-01T15:37:38.479Z,4.50
2022-10-01T15:40:40.478Z,4.60
2022-10-01T15:43:08.681Z,4.50
2022-10-01T15:45:37.054Z,5.00
2022-10-01T15:48:05.238Z,5.40
2022-10-01T15:50:39.365Z,4.90
2022-10-01T15:53:17.000Z,4.60
2022-10-01T15:55:56.434Z,4.70
2022-10-01T15:58:35.312Z,5.10
2022-10-01T16:01:13.240Z,5.20
2022-10-01T16:04:14.441Z,5.40
2022-10-01T16:06:48.263Z,5.60
2022-10-01T16:09:31.190Z,5.30
2022-10-01T16:12:21.374Z,6.20
2022-10-01T16:15:06.413Z,4.90
2022-10-01T16:17:40.181Z,6.30
2022-10-01T16:20:14.706Z,6.10
2022-10-01T16:22:44.269Z,9.00
2022-10-01T16:25:19.729Z,48.60
2022-10-01T16:28:01.608Z,68.40
2022-10-01T16:30:34.005Z,82.40
2022-10-01T16:33:06.362Z,90.10
2022-10-01T16:35:36.273Z,82.00
2022-10-01T16:38:09.365Z,92.50
2022-10-01T16:40:44.854Z,88.40
2022-10-01T16:43:24.448Z,98.60
2022-10-01T16:45:53.588Z,82.50
2022-10-01T16:48:22.604Z,84.40
2022-10-01T16:50:54.093Z,87.50
2022-10-01T16:53:24.943Z,83.90
2022-10-01T16:55:53.316Z,77.40
2022-10-01T16:58:22.115Z,71.40
2022-10-01T17:00:51.521Z,82.20
2022-10-01T17:03:22.668Z,81.10
2022-10-01T17:05:50.928Z,79.40
2022-10-01T17:08:20.468Z,77.90
2022-10-01T17:10:57.465Z,62.50
2022-10-01T17:13:29.997Z,78.90
2022-10-01T17:15:59.955Z,68.40
2022-10-01T17:18:28.400Z,63.30
2022-10-01T17:20:56.711Z,68.90
2022-10-01T17:23:25.002Z,69.00
2022-10-01T17:25:53.527Z,69.40
2022-10-01T17:28:24.173Z,72.00
2022-10-01T17:30:52.685Z,60.70
2022-10-01T17:33:21.333Z,62.80
2022-10-01T17:35:55.891Z,61.90
2022-10-01T17:38:24.741Z,56.50
2022-10-01T17:40:56.717Z,55.20
2022-10-01T17:43:25.505Z,57.30
2022-10-01T17:46:02.488Z,57.70
2022-10-01T17:48:31.685Z,53.80
2022-10-01T17:51:07.158Z,57.80
2022-10-01T17:53:42.321Z,53.70
2022-10-01T17:56:17.951Z,55.50
2022-10-01T17:58:47.102Z,52.10
2022-10-01T18:01:21.231Z,49.10
2022-10-01T18:03:56.305Z,55.40
2022-10-01T18:06:25.370Z,53.40
2022-10-01T18:08:55.938Z,52.80
2022-10-01T18:11:29.192Z,45.70
2022-10-01T18:13:58.169Z,51.00
2022-10-01T18:16:28.176Z,52.40
2022-10-01T18:21:48.213Z,47.10
2022-10-01T18:24:17.996Z,52.50
2022-10-01T18:26:47.099Z,43.20
2022-10-01T18:29:25.846Z,41.10
2022-10-01T18:32:14.076Z,43.50
2022-10-01T18:34:59.683Z,47.80
2022-10-01T18:37:46.231Z,44.50
2022-10-01T18:40:21.910Z,48.50
2022-10-01T18:43:03.608Z,44.30
2022-10-01T18:45:50.019Z,45.10
2022-10-01T18:48:42.250Z,42.20
2022-10-01T18:51:16.662Z,42.60
2022-10-01T18:56:36.453Z,42.50
2022-10-01T18:59:54.703Z,40.70
2022-10-01T19:03:06.211Z,40.80
2022-10-01T19:06:00.675Z,33.60
2022-10-01T19:08:41.561Z,33.90
2022-10-01T19:12:00.820Z,35.50
2022-10-01T19:14:46.723Z,35.80
2022-10-01T19:18:26.976Z,37.70
2022-10-01T19:21:38.383Z,35.30
2022-10-01T19:24:36.662Z,36.50
2022-10-01T19:27:25.314Z,35.70
2022-10-01T19:30:20.821Z,37.90
2022-10-01T19:35:47.494Z,39.90
2022-10-01T19:38:29.911Z,41.10
2022-10-01T19:41:23.854Z,35.30
2022-10-01T19:44:02.708Z,35.00
2022-10-01T19:46:41.274Z,33.00
2022-10-01T19:49:10.189Z,37.20
2022-10-01T19:52:00.210Z,33.80
2022-10-01T19:54:35.048Z,36.20
2022-10-01T19:57:41.080Z,31.00
2022-10-01T20:00:22.407Z,36.80
2022-10-01T20:03:36.094Z,30.80
2022-10-01T20:06:18.837Z,36.10
2022-10-01T20:09:08.183Z,33.80
2022-10-01T20:12:44.150Z,35.60
2022-10-01T20:15:34.557Z,27.70
2022-10-01T20:18:31.584Z,26.60
2022-10-01T20:21:16.463Z,31.70
2022-10-01T20:24:18.727Z,27.60
2022-10-01T20:27:01.238Z,31.10
2022-10-01T20:30:12.167Z,30.20
2022-10-01T20:33:13.353Z,27.50
2022-10-01T20:36:09.713Z,27.80
2022-10-01T20:38:52.651Z,28.20
2022-10-01T20:41:25.281Z,30.90
2022-10-01T20:43:59.883Z,33.40
2022-10-01T20:49:38.685Z,44.60
2022-10-01T20:52:20.492Z,38.80
2022-10-01T20:54:55.196Z,39.20
2022-10-01T20:58:19.433Z,42.00
2022-10-01T21:00:51.558Z,36.00
2022-10-01T21:03:44.592Z,39.80
2022-10-01T21:06:21.912Z,37.70
2022-10-01T21:09:10.441Z,33.00
2022-10-01T21:11:56.442Z,32.90
2022-10-01T21:14:44.576Z,30.20
2022-10-01T21:17:21.467Z,30.40
2022-10-01T21:19:55.833Z,28.10
2022-10-01T21:22:43.014Z,28.70
2022-10-01T21:25:30.118Z,24.40
2022-10-01T21:28:33.403Z,24.80
2022-10-01T21:31:32.849Z,24.30
2022-10-01T21:34:29.255Z,23.10
2022-10-01T21:37:22.960Z,23.50
2022-10-01T21:40:18.030Z,23.10
2022-10-01T21:43:37.017Z,23.70
2022-10-01T21:46:42.854Z,22.90
2022-10-01T21:52:41.358Z,19.20
2022-10-01T21:55:20.975Z,18.40
2022-10-01T21:58:23.582Z,20.60
2022-10-01T22:01:27.581Z,18.10
2022-10-01T22:04:40.113Z,18.40
2022-10-01T22:07:38.878Z,14.50
2022-10-01T22:10:26.779Z,17.70
2022-10-01T22:13:03.274Z,19.10
2022-10-01T22:15:40.644Z,16.20
2022-10-01T22:18:19.730Z,18.10
2022-10-01T22:20:48.890Z,15.90
2022-10-01T22:23:19.838Z,15.30
2022-10-01T22:26:06.374Z,16.60
2022-10-01T22:28:42.180Z,18.60
2022-10-01T22:31:20.574Z,15.10
2022-10-01T22:33:57.620Z,14.20
2022-10-01T22:36:45.798Z,14.20
2022-10-01T22:39:30.924Z,14.00
2022-10-01T22:42:14.416Z,13.00
2022-10-01T22:44:42.340Z,12.70
2022-10-01T22:47:55.263Z,13.70
2022-10-01T22:50:43.200Z,12.70
2022-10-01T22:53:39.478Z,12.40
2022-10-01T22:56:12.335Z,12.10
2022-10-01T22:59:20.647Z,12.60
2022-10-01T23:02:23.070Z,12.10
2022-10-01T23:05:24.697Z,11.30
2022-10-01T23:08:24.406Z,11.90
2022-10-01T23:11:14.111Z,12.30
2022-10-01T23:14:15.918Z,12.40
2022-10-01T23:17:22.805Z,15.20
2022-10-01T23:20:22.088Z,17.60
2022-10-01T23:23:02.262Z,19.30
2022-10-01T23:26:04.025Z,17.50
2022-10-01T23:29:30.399Z,18.70
2022-10-01T23:35:31.733Z,15.40
2022-10-01T23:38:44.962Z,17.60
2022-10-01T23:41:31.179Z,18.10
2022-10-01T23:44:14.184Z,15.30
2022-10-01T23:46:48.568Z,15.60
2022-10-01T23:49:22.194Z,17.10
2022-10-01T23:52:05.741Z,16.80
2022-10-01T23:54:44.671Z,17.70
2022-10-01T23:57:39.373Z,14.20
